Time;durP1;ratioP1;P1;durP2;ratioP2;P2;SDS_P1;SDS_P2;PMS_P1;PMS_P2;Temp;Humidity;BMP_temperature;BMP_pressure;BME280_temperature;BME280_humidity;BME280_pressure;Samples;Min_cycle;Max_cycle;Signal;HPM_P1;HPM_P2
2022/04/10 00:01:21;;;;;;;7.60;3.75;;;3.50;16.20;;;;;;7385657;19;20017;-61
2022/04/10 00:03:51;;;;;;;5.25;3.55;;;3.60;16.20;;;;;;7358660;19;20048;-61
2022/04/10 00:06:23;;;;;;;5.38;3.10;;;3.50;15.80;;;;;;7364521;19;20006;-61
2022/04/10 00:08:53;;;;;;;4.75;3.28;;;3.50;15.80;;;;;;7365708;19;20011;-61
2022/04/10 00:11:23;;;;;;;6.43;2.88;;;3.50;15.60;;;;;;7365284;19;20512;-62
2022/04/10 00:13:53;;;;;;;6.40;3.03;;;3.50;15.20;;;;;;7359637;19;20010;-61
2022/04/10 00:16:23;;;;;;;6.35;3.70;;;3.40;15.80;;;;;;7386572;19;20010;-61
2022/04/10 00:18:54;;;;;;;5.72;3.60;;;3.40;16.60;;;;;;7364072;19;20014;-61
2022/04/10 00:21:27;;;;;;;5.82;3.15;;;3.40;16.20;;;;;;7362644;19;20454;-62
2022/04/10 00:23:57;;;;;;;5.63;3.20;;;3.30;15.80;;;;;;7359638;19;20015;-61
2022/04/10 00:26:27;;;;;;;8.90;3.95;;;3.30;16.20;;;;;;7364850;19;20038;-62
2022/04/10 00:28:58;;;;;;;7.13;3.47;;;3.20;16.60;;;;;;7365118;19;20058;-61
2022/04/10 00:31:28;;;;;;;11.50;4.28;;;3.20;17.00;;;;;;7386663;19;20020;-62
2022/04/10 00:33:59;;;;;;;6.50;3.42;;;3.20;17.20;;;;;;7358921;19;20018;-62
2022/04/10 00:36:31;;;;;;;6.07;3.30;;;3.20;17.00;;;;;;7364869;19;21158;-62
2022/04/10 00:39:01;;;;;;;6.47;3.78;;;3.20;15.60;;;;;;7365097;19;20014;-61
2022/04/10 00:41:31;;;;;;;7.30;3.50;;;3.20;15.00;;;;;;7363423;19;20081;-61
2022/04/10 00:44:05;;;;;;;6.03;3.67;;;3.20;14.90;;;;;;7358741;19;20157;-63
2022/04/10 00:46:35;;;;;;;5.72;3.83;;;3.30;13.60;;;;;;7384735;19;20020;-63
2022/04/10 00:49:07;;;;;;;6.32;3.72;;;3.50;12.30;;;;;;7365119;19;20010;-60
2022/04/10 00:51:43;;;;;;;8.43;3.72;;;3.60;9.20;;;;;;7364760;19;20077;-61
2022/04/10 00:54:15;;;;;;;8.45;4.28;;;3.80;8.20;;;;;;7358329;19;20014;-61
2022/04/10 00:56:45;;;;;;;6.78;3.55;;;3.80;7.30;;;;;;7362599;19;20082;-62
2022/04/10 00:59:16;;;;;;;7.35;4.25;;;3.90;6.20;;;;;;7363201;19;20016;-62
2022/04/10 01:01:47;;;;;;;5.90;3.47;;;3.90;6.00;;;;;;7363449;19;20010;-61
2022/04/10 01:04:37;;;;;;;7.47;4.43;;;4.00;5.30;;;;;;7380117;19;20770;-64
2022/04/10 01:07:11;;;;;;;5.95;3.58;;;4.00;4.70;;;;;;7384719;19;20017;-62
2022/04/10 01:09:42;;;;;;;8.70;4.60;;;4.10;4.40;;;;;;7363363;19;20466;-62
2022/04/10 01:12:13;;;;;;;8.43;3.75;;;4.10;4.30;;;;;;7361422;19;20098;-61
2022/04/10 01:14:43;;;;;;;6.85;3.17;;;4.10;3.70;;;;;;7358986;19;20015;-61
2022/04/10 01:17:14;;;;;;;9.52;4.15;;;4.10;3.70;;;;;;7358427;19;20361;-61
2022/04/10 01:19:44;;;;;;;7.20;3.60;;;4.20;3.90;;;;;;7360563;19;20933;-61
2022/04/10 01:22:28;;;;;;;7.45;3.50;;;4.20;4.30;;;;;;7382017;19;20020;-61
2022/04/10 01:24:59;;;;;;;9.60;3.50;;;4.30;4.90;;;;;;7359228;19;20357;-61
2022/04/10 01:27:29;;;;;;;6.13;3.30;;;4.30;6.30;;;;;;7362580;19;20027;-62
2022/04/10 01:30:02;;;;;;;8.25;3.60;;;4.30;8.50;;;;;;7360784;19;20017;-62
2022/04/10 01:32:32;;;;;;;8.35;3.80;;;4.30;9.00;;;;;;7361943;19;20010;-61
2022/04/10 01:35:04;;;;;;;4.13;2.83;;;4.30;9.30;;;;;;7359166;19;20014;-61
2022/04/10 01:37:38;;;;;;;6.15;3.40;;;4.30;10.10;;;;;;7384078;19;20020;-62
2022/04/10 01:40:09;;;;;;;7.00;3.33;;;4.30;11.00;;;;;;7363467;19;20022;-62
2022/04/10 01:42:38;;;;;;;7.72;3.42;;;4.20;11.80;;;;;;7366347;19;20085;-62
2022/04/10 01:45:10;;;;;;;7.68;3.70;;;4.30;9.90;;;;;;7366162;19;20046;-61
2022/04/10 01:47:40;;;;;;;7.60;4.22;;;4.20;10.00;;;;;;7370067;19;20097;-60
2022/04/10 01:50:11;;;;;;;7.15;4.30;;;4.10;10.70;;;;;;7368670;19;20014;-60
2022/04/10 01:52:43;;;;;;;6.80;3.75;;;4.10;10.60;;;;;;7366875;19;20035;-61
2022/04/10 01:55:13;;;;;;;10.13;4.53;;;4.00;11.00;;;;;;7386193;19;20007;-61
2022/04/10 01:57:43;;;;;;;5.47;3.83;;;3.90;11.60;;;;;;7369504;19;20510;-61
2022/04/10 02:00:14;;;;;;;7.47;3.50;;;3.90;11.50;;;;;;7369690;19;20110;-61
2022/04/10 02:02:44;;;;;;;7.13;3.85;;;3.90;11.90;;;;;;7368251;19;20010;-61
2022/04/10 02:05:14;;;;;;;6.63;3.92;;;3.80;11.80;;;;;;7365799;19;20047;-61
2022/04/10 02:07:46;;;;;;;5.10;3.80;;;3.80;12.40;;;;;;7369075;19;20011;-61
2022/04/10 02:10:16;;;;;;;6.75;3.88;;;3.70;12.90;;;;;;7392045;19;20016;-62
2022/04/10 02:12:47;;;;;;;9.93;4.07;;;3.70;12.80;;;;;;7367562;19;20017;-62
2022/04/10 02:15:17;;;;;;;6.90;4.20;;;3.60;13.80;;;;;;7366384;19;20018;-61
2022/04/10 02:17:47;;;;;;;5.68;3.63;;;3.50;13.80;;;;;;7368572;19;20017;-60
2022/04/10 02:20:23;;;;;;;12.68;4.70;;;3.50;14.00;;;;;;7369085;19;20014;-61
2022/04/10 02:22:58;;;;;;;6.80;3.83;;;3.50;14.50;;;;;;7363827;19;20007;-61
2022/04/10 02:25:28;;;;;;;7.60;4.05;;;3.40;15.10;;;;;;7387610;19;20573;-61
2022/04/10 02:27:58;;;;;;;9.05;4.28;;;3.40;15.60;;;;;;7368444;19;20612;-61
2022/04/10 02:30:27;;;;;;;6.03;3.58;;;3.40;15.40;;;;;;7367280;19;20018;-61
2022/04/10 02:32:57;;;;;;;7.53;3.78;;;3.40;16.90;;;;;;7364873;19;20003;-61
2022/04/10 02:35:27;;;;;;;7.32;3.70;;;3.30;15.20;;;;;;7367342;19;20351;-62
2022/04/10 02:38:00;;;;;;;10.00;3.72;;;3.30;15.70;;;;;;7367516;19;20041;-60
2022/04/10 02:40:30;;;;;;;9.90;3.78;;;3.30;16.10;;;;;;7390486;19;20409;-61
2022/04/10 02:42:59;;;;;;;8.25;3.65;;;3.20;17.00;;;;;;7363163;19;20609;-61
2022/04/10 02:45:30;;;;;;;6.50;4.40;;;3.20;17.00;;;;;;7365482;19;20502;-61
2022/04/10 02:48:02;;;;;;;7.50;4.20;;;3.10;17.20;;;;;;7366594;19;20355;-62
2022/04/10 02:50:31;;;;;;;8.85;4.70;;;3.10;17.80;;;;;;7366918;19;20015;-62
2022/04/10 02:53:04;;;;;;;10.27;5.15;;;3.10;18.00;;;;;;7360365;19;20074;-61
2022/04/10 02:55:34;;;;;;;8.23;4.22;;;3.00;18.30;;;;;;7388147;19;20010;-61
2022/04/10 02:58:23;;;;;;;9.02;4.53;;;3.00;18.30;;;;;;7365115;19;20018;-62
2022/04/10 03:01:11;;;;;;;7.68;4.82;;;3.00;18.40;;;;;;7368793;19;20352;-61
2022/04/10 03:04:00;;;;;;;9.23;4.70;;;3.00;18.30;;;;;;7361815;19;20010;-62
2022/04/10 03:06:48;;;;;;;7.80;4.85;;;2.90;18.30;;;;;;7366059;19;20020;-61
2022/04/10 03:09:38;;;;;;;7.97;4.70;;;2.90;18.30;;;;;;7368757;19;20015;-60
2022/04/10 03:12:27;;;;;;;6.90;4.30;;;2.90;18.90;;;;;;7365651;19;20070;-61
2022/04/10 03:15:15;;;;;;;8.85;4.47;;;2.80;18.70;;;;;;7364111;19;20006;-62
2022/04/10 03:18:04;;;;;;;6.78;4.53;;;2.90;18.70;;;;;;7366737;19;20044;-60
2022/04/10 03:20:52;;;;;;;7.18;4.65;;;2.90;18.50;;;;;;7367140;19;20015;-62
2022/04/10 03:23:41;;;;;;;6.35;3.88;;;2.80;19.00;;;;;;7361661;19;20014;-61
2022/04/10 03:26:32;;;;;;;8.18;4.95;;;2.90;18.30;;;;;;7366280;19;20039;-61
2022/04/10 03:29:21;;;;;;;8.40;4.63;;;2.80;18.20;;;;;;7365746;19;20010;-61
2022/04/10 03:32:10;;;;;;;8.20;4.13;;;2.80;18.20;;;;;;7364300;19;20014;-61
2022/04/10 03:34:58;;;;;;;8.10;5.20;;;2.70;18.20;;;;;;7363478;19;20011;-62
2022/04/10 03:37:47;;;;;;;7.03;4.30;;;2.70;18.10;;;;;;7363736;19;20010;-61
2022/04/10 03:40:35;;;;;;;8.32;4.95;;;2.70;18.20;;;;;;7388835;19;20350;-63
2022/04/10 03:43:26;;;;;;;7.47;4.88;;;2.80;18.80;;;;;;7361474;19;20007;-61
2022/04/10 03:46:15;;;;;;;7.22;4.35;;;2.80;18.20;;;;;;7365319;19;20010;-61
2022/04/10 03:49:03;;;;;;;7.97;4.40;;;2.80;17.60;;;;;;7364974;19;20018;-61
2022/04/10 03:51:52;;;;;;;7.43;4.65;;;2.80;17.20;;;;;;7364651;19;20518;-62
2022/04/10 03:54:40;;;;;;;8.82;4.40;;;2.80;16.20;;;;;;7361968;19;20379;-61
2022/04/10 03:57:28;;;;;;;9.65;5.07;;;2.80;16.70;;;;;;7363518;19;20025;-61
2022/04/10 04:00:20;;;;;;;6.95;5.07;;;2.80;16.60;;;;;;7365824;19;20010;-60
2022/04/10 04:03:08;;;;;;;12.80;5.28;;;2.80;16.90;;;;;;7361437;19;20612;-61
2022/04/10 04:05:57;;;;;;;9.13;5.50;;;2.70;16.60;;;;;;7365622;19;20014;-60
2022/04/10 04:08:46;;;;;;;7.28;4.95;;;2.80;16.30;;;;;;7365798;19;20010;-61
2022/04/10 04:11:34;;;;;;;6.82;5.00;;;2.80;16.20;;;;;;7365550;19;20010;-61
2022/04/10 04:14:22;;;;;;;12.25;5.05;;;2.80;16.00;;;;;;7362886;19;20064;-61
2022/04/10 04:17:13;;;;;;;7.25;5.10;;;2.80;16.30;;;;;;7365302;19;20010;-62
2022/04/10 04:20:03;;;;;;;10.27;5.18;;;2.90;16.20;;;;;;7364379;19;20732;-61
2022/04/10 04:22:53;;;;;;;11.60;4.90;;;3.00;15.00;;;;;;7363077;19;20022;-61
2022/04/10 04:25:41;;;;;;;7.70;4.70;;;3.00;14.80;;;;;;7362926;19;20026;-62
2022/04/10 04:28:32;;;;;;;7.65;5.03;;;3.10;14.90;;;;;;7384679;19;20052;-61
2022/04/10 04:31:21;;;;;;;9.13;5.55;;;3.10;14.80;;;;;;7364317;19;20425;-61
2022/04/10 04:34:13;;;;;;;7.03;5.03;;;3.20;13.60;;;;;;7359795;19;20014;-61
2022/04/10 04:37:02;;;;;;;8.82;4.93;;;3.20;13.40;;;;;;7365098;19;20795;-60
2022/04/10 04:39:50;;;;;;;8.70;4.80;;;3.20;13.20;;;;;;7364754;19;20010;-61
2022/04/10 04:42:39;;;;;;;5.82;5.00;;;3.20;13.80;;;;;;7359936;19;20045;-61
2022/04/10 04:45:27;;;;;;;9.27;5.32;;;3.20;13.30;;;;;;7360098;19;20025;-61
2022/04/10 04:48:16;;;;;;;7.90;4.82;;;3.20;13.40;;;;;;7360304;19;20021;-61
2022/04/10 04:51:07;;;;;;;6.68;5.22;;;3.20;13.30;;;;;;7362287;19;20057;-61
2022/04/10 04:53:55;;;;;;;10.10;6.10;;;3.20;13.90;;;;;;7354645;19;20055;-61
2022/04/10 04:56:43;;;;;;;8.95;5.25;;;3.30;13.40;;;;;;7354149;19;20019;-62
2022/04/10 04:59:32;;;;;;;7.82;5.25;;;3.30;13.40;;;;;;7353742;19;20014;-61
2022/04/10 05:02:21;;;;;;;11.25;6.00;;;3.50;12.20;;;;;;7355405;19;20015;-61
2022/04/10 05:05:10;;;;;;;8.18;4.93;;;4.20;8.20;;;;;;7352369;19;20019;-60
2022/04/10 05:08:03;;;;;;;9.48;5.78;;;4.60;3.80;;;;;;7354560;19;20007;-61
2022/04/10 05:10:51;;;;;;;11.25;5.88;;;5.10;1.00;;;;;;7356944;19;20384;-61
2022/04/10 05:13:40;;;;;;;11.07;5.57;;;5.70;1.00;;;;;;7356627;19;20011;-62
2022/04/10 05:16:29;;;;;;;8.93;5.47;;;5.80;1.00;;;;;;7388692;19;20081;-61
2022/04/10 05:19:17;;;;;;;7.47;5.40;;;5.70;1.00;;;;;;7370083;19;20462;-61
2022/04/10 05:22:05;;;;;;;7.68;4.97;;;6.50;1.00;;;;;;7367173;19;20050;-61
2022/04/10 05:24:57;;;;;;;7.65;4.55;;;6.80;1.00;;;;;;7364767;19;20003;-61
2022/04/10 05:27:45;;;;;;;11.18;4.47;;;6.50;1.00;;;;;;7368027;19;20516;-62
2022/04/10 05:30:33;;;;;;;7.63;4.38;;;6.50;1.00;;;;;;7369689;19;20014;-62
2022/04/10 05:33:22;;;;;;;5.85;4.35;;;6.70;1.00;;;;;;7365163;19;20053;-61
2022/04/10 05:36:10;;;;;;;6.95;4.40;;;6.00;1.00;;;;;;7371755;19;20644;-60
2022/04/10 05:38:59;;;;;;;8.48;4.70;;;4.30;2.70;;;;;;7368021;19;20597;-61
2022/04/10 05:41:50;;;;;;;6.93;4.68;;;4.40;4.20;;;;;;7369036;19;20525;-61
2022/04/10 05:44:38;;;;;;;7.03;5.10;;;4.30;4.90;;;;;;7365668;19;20007;-62
2022/04/10 05:47:27;;;;;;;6.60;4.32;;;4.20;6.90;;;;;;7370039;19;20006;-60
2022/04/10 05:50:16;;;;;;;7.60;4.60;;;4.40;6.90;;;;;;7370071;19;20022;-61
2022/04/10 05:53:05;;;;;;;5.95;4.72;;;4.50;5.00;;;;;;7367313;19;20386;-61
2022/04/10 05:55:53;;;;;;;5.00;4.30;;;4.80;5.20;;;;;;7367004;19;20513;-62
2022/04/10 05:58:44;;;;;;;6.57;4.22;;;4.80;2.50;;;;;;7369027;19;20018;-62
2022/04/10 06:01:32;;;;;;;5.97;4.10;;;5.00;2.70;;;;;;7391019;19;20014;-62
2022/04/10 06:04:21;;;;;;;7.18;4.70;;;5.10;1.90;;;;;;7364197;19;20011;-61
2022/04/10 06:07:10;;;;;;;6.82;4.38;;;4.90;1.60;;;;;;7369453;19;20010;-62
2022/04/10 06:09:59;;;;;;;6.18;4.75;;;5.10;2.50;;;;;;7368019;19;20034;-61
2022/04/10 06:12:48;;;;;;;6.53;4.32;;;4.60;3.70;;;;;;7365495;19;20017;-61
2022/04/10 06:15:25;;;;;;;5.38;4.53;;;4.60;3.90;;;;;;7365822;19;20106;-61
2022/04/10 06:17:55;;;;;;;11.18;5.70;;;4.70;4.70;;;;;;7368906;19;20010;-62
2022/04/10 06:20:24;;;;;;;7.95;5.25;;;4.70;4.30;;;;;;7367470;19;20014;-62
2022/04/10 06:22:55;;;;;;;8.32;4.75;;;4.70;4.40;;;;;;7364998;19;20014;-60
2022/04/10 06:25:25;;;;;;;8.60;4.75;;;4.70;4.80;;;;;;7384617;19;20015;-62
2022/04/10 06:27:56;;;;;;;8.80;5.15;;;4.70;5.10;;;;;;7367253;19;20006;-62
2022/04/10 06:30:28;;;;;;;7.45;4.63;;;4.70;4.90;;;;;;7368583;19;20010;-62
2022/04/10 06:32:58;;;;;;;7.10;5.05;;;4.80;5.40;;;;;;7366389;19;20498;-61
2022/04/10 06:35:28;;;;;;;8.63;5.28;;;4.80;5.60;;;;;;7363072;19;20401;-61
2022/04/10 06:37:58;;;;;;;7.32;4.72;;;4.90;5.20;;;;;;7366974;19;20020;-61
2022/04/10 06:40:27;;;;;;;6.25;4.50;;;5.00;5.20;;;;;;7390053;19;20015;-61
2022/04/10 06:42:57;;;;;;;7.70;4.47;;;5.00;4.20;;;;;;7364916;19;20524;-63
2022/04/10 06:45:30;;;;;;;7.53;5.00;;;5.00;4.00;;;;;;7364306;19;20010;-61
2022/04/10 06:48:00;;;;;;;9.85;5.03;;;4.90;4.10;;;;;;7366643;19;20007;-61
2022/04/10 06:50:30;;;;;;;7.88;4.78;;;5.00;4.30;;;;;;7367211;19;20371;-62
2022/04/10 06:53:00;;;;;;;7.10;4.90;;;5.20;3.90;;;;;;7365406;19;20074;-62
2022/04/10 06:55:31;;;;;;;5.72;4.53;;;5.20;3.40;;;;;;7384443;19;20085;-61
2022/04/10 06:58:04;;;;;;;8.20;4.60;;;5.40;3.10;;;;;;7366825;19;20010;-62
2022/04/10 07:00:38;;;;;;;7.15;4.72;;;5.20;2.30;;;;;;7366761;19;20018;-61
2022/04/10 07:03:08;;;;;;;6.78;4.97;;;5.50;1.90;;;;;;7365105;19;20105;-61
2022/04/10 07:05:39;;;;;;;6.55;4.50;;;5.50;2.50;;;;;;7361177;19;20011;-61
2022/04/10 07:08:09;;;;;;;6.65;4.97;;;5.40;1.80;;;;;;7366079;19;20462;-61
2022/04/10 07:10:39;;;;;;;6.70;4.43;;;5.60;2.70;;;;;;7367629;19;20086;-62
2022/04/10 07:13:09;;;;;;;8.90;4.90;;;5.60;1.00;;;;;;7385669;19;20018;-62
2022/04/10 07:15:41;;;;;;;6.18;4.93;;;5.70;1.00;;;;;;7363948;19;20014;-61
2022/04/10 07:18:11;;;;;;;7.00;4.78;;;5.80;1.00;;;;;;7365297;19;20021;-61
2022/04/10 07:20:41;;;;;;;8.13;5.35;;;5.70;1.00;;;;;;7366854;19;20025;-62
2022/04/10 07:25:53;;;;;;;7.45;5.22;;;5.70;1.00;;;;;;7363563;19;20011;-61
2022/04/10 07:28:24;;;;;;;8.85;5.20;;;5.60;1.00;;;;;;7387428;19;20015;-61
2022/04/10 07:30:57;;;;;;;8.52;4.75;;;6.10;1.00;;;;;;7365677;19;20082;-61
2022/04/10 07:33:28;;;;;;;8.65;4.47;;;6.10;1.00;;;;;;7361311;19;20010;-62
2022/04/10 07:35:58;;;;;;;9.20;5.20;;;6.10;1.00;;;;;;7364996;19;20852;-62
2022/04/10 07:38:27;;;;;;;7.90;5.20;;;6.40;1.00;;;;;;7363823;19;20433;-62
2022/04/10 07:40:58;;;;;;;8.80;5.47;;;6.10;1.00;;;;;;7366163;19;20161;-60
2022/04/10 07:43:28;;;;;;;6.95;4.70;;;6.00;1.00;;;;;;7383624;19;20049;-63
2022/04/10 07:48:45;;;;;;;5.60;4.32;;;6.30;1.00;;;;;;7363326;19;20022;-61
2022/04/10 07:51:14;;;;;;;5.25;4.45;;;6.50;1.00;;;;;;7366166;19;20007;-61
2022/04/10 07:53:44;;;;;;;8.00;5.15;;;6.30;1.00;;;;;;7359656;19;20013;-61
2022/04/10 07:56:14;;;;;;;6.50;4.60;;;6.40;1.00;;;;;;7365652;19;20079;-62
2022/04/10 07:58:44;;;;;;;6.28;4.55;;;6.50;1.00;;;;;;7365317;19;20006;-61
2022/04/10 08:01:17;;;;;;;11.45;5.22;;;6.50;1.00;;;;;;7386483;19;20105;-61
2022/04/10 08:03:51;;;;;;;9.88;4.75;;;6.80;1.00;;;;;;7358788;19;20018;-62
2022/04/10 08:06:21;;;;;;;5.40;4.50;;;6.80;1.00;;;;;;7364418;19;20010;-61
2022/04/10 08:08:51;;;;;;;8.57;4.30;;;6.90;1.00;;;;;;7364342;19;20007;-61
2022/04/10 08:11:20;;;;;;;6.07;3.78;;;6.70;1.00;;;;;;7364990;19;20073;-61
2022/04/10 08:13:50;;;;;;;8.48;3.90;;;7.10;1.00;;;;;;7359827;19;20011;-62
2022/04/10 08:16:23;;;;;;;7.05;4.35;;;7.20;1.00;;;;;;7387813;19;20025;-62
2022/04/10 08:18:53;;;;;;;10.52;4.25;;;7.50;1.00;;;;;;7363556;19;20006;-61
2022/04/10 08:21:23;;;;;;;6.50;4.18;;;7.30;1.00;;;;;;7364032;19;20014;-61
2022/04/10 08:23:53;;;;;;;12.77;4.50;;;7.40;1.00;;;;;;7358942;19;20006;-61
2022/04/10 08:26:23;;;;;;;8.18;4.60;;;7.70;1.00;;;;;;7364241;19;20074;-60
2022/04/10 08:28:53;;;;;;;7.75;4.53;;;7.50;1.00;;;;;;7362104;19;20022;-62
2022/04/10 08:31:28;;;;;;;8.55;4.65;;;7.40;1.00;;;;;;7385791;19;20021;-62
2022/04/10 08:33:58;;;;;;;9.02;4.45;;;7.50;1.00;;;;;;7358253;19;20013;-61
2022/04/10 08:36:28;;;;;;;5.80;4.25;;;7.70;1.00;;;;;;7361245;19;20078;-60
2022/04/10 08:38:58;;;;;;;6.28;4.25;;;7.60;1.00;;;;;;7363328;19;20021;-60
2022/04/10 08:41:31;;;;;;;7.22;4.53;;;7.50;1.00;;;;;;7363099;19;20082;-60
2022/04/10 08:44:03;;;;;;;11.65;4.70;;;7.80;1.00;;;;;;7359712;19;20056;-61
2022/04/10 08:46:37;;;;;;;11.10;4.43;;;8.00;1.00;;;;;;7386218;19;20028;-61
2022/04/10 08:49:07;;;;;;;6.13;4.00;;;8.40;1.00;;;;;;7362605;19;20006;-61
2022/04/10 08:51:37;;;;;;;7.05;4.38;;;8.20;1.00;;;;;;7363393;19;20533;-60
2022/04/10 08:54:07;;;;;;;6.55;4.07;;;7.80;1.00;;;;;;7357156;19;20018;-60
2022/04/10 08:56:37;;;;;;;6.60;3.80;;;7.50;1.00;;;;;;7363974;19;20014;-60
2022/04/10 08:59:07;;;;;;;7.97;4.32;;;7.70;1.00;;;;;;7361381;19;20015;-61
2022/04/10 09:01:40;;;;;;;7.10;4.70;;;7.80;1.00;;;;;;7383379;19;20487;-64
2022/04/10 09:04:10;;;;;;;5.82;4.15;;;7.50;1.00;;;;;;7376882;19;20015;-60
2022/04/10 09:06:42;;;;;;;6.07;4.28;;;7.60;1.00;;;;;;7362939;19;20018;-60
2022/04/10 09:09:16;;;;;;;7.03;4.07;;;7.90;1.00;;;;;;7362020;19;20011;-62
2022/04/10 09:11:54;;;;;;;7.78;5.40;;;8.30;1.00;;;;;;7362386;19;20075;-61
2022/04/10 09:14:25;;;;;;;7.70;5.57;;;7.90;1.00;;;;;;7357108;19;20564;-61
2022/04/10 09:17:16;;;;;;;7.20;4.95;;;8.00;1.00;;;;;;7363595;19;20512;-61
2022/04/10 09:19:48;;;;;;;4.38;3.97;;;8.10;1.00;;;;;;7362511;19;20017;-61
2022/04/10 09:22:25;;;;;;;7.68;4.55;;;8.10;1.00;;;;;;7380637;19;20031;-61
2022/04/10 09:25:07;;;;;;;7.30;4.70;;;8.10;1.00;;;;;;7356107;19;20010;-61
2022/04/10 09:27:39;;;;;;;9.48;5.10;;;8.10;1.00;;;;;;7362192;19;20010;-61
2022/04/10 09:30:11;;;;;;;9.85;5.15;;;8.30;1.00;;;;;;7361054;19;20020;-61
2022/04/10 09:32:51;;;;;;;6.65;4.30;;;8.70;1.00;;;;;;7357037;19;20108;-61
2022/04/10 09:35:22;;;;;;;8.70;4.03;;;9.10;1.00;;;;;;7358932;19;20017;-62
2022/04/10 09:37:55;;;;;;;6.65;3.85;;;9.40;1.00;;;;;;7361568;19;20511;-61
2022/04/10 09:40:27;;;;;;;4.75;3.80;;;9.60;1.00;;;;;;7382851;19;20467;-61
2022/04/10 09:43:05;;;;;;;6.22;3.92;;;9.00;1.00;;;;;;7356653;19;20017;-61
2022/04/10 09:45:38;;;;;;;6.05;4.28;;;9.00;1.00;;;;;;7358012;19;20010;-60
2022/04/10 09:48:27;;;;;;;5.78;3.83;;;8.40;1.00;;;;;;7362266;19;20462;-62
2022/04/10 09:51:00;;;;;;;5.70;4.32;;;8.80;1.00;;;;;;7360925;19;20013;-61
2022/04/10 09:53:30;;;;;;;7.35;4.30;;;8.70;1.00;;;;;;7356312;19;20014;-62
2022/04/10 09:56:02;;;;;;;5.15;3.15;;;8.60;1.00;;;;;;7355614;19;20110;-61
2022/04/10 09:58:33;;;;;;;5.35;3.20;;;8.90;1.00;;;;;;7379081;19;20021;-61
2022/04/10 10:01:04;;;;;;;6.28;3.47;;;8.70;1.00;;;;;;7360732;19;20019;-61
2022/04/10 10:03:41;;;;;;;7.78;3.35;;;8.80;1.00;;;;;;7358383;19;20126;-61
2022/04/10 10:06:12;;;;;;;6.57;3.55;;;8.10;1.00;;;;;;7368559;19;20062;-60
2022/04/10 10:08:44;;;;;;;4.88;3.53;;;8.10;1.00;;;;;;7367587;19;20057;-61
2022/04/10 10:11:15;;;;;;;6.78;3.85;;;8.00;1.00;;;;;;7367304;19;20015;-61
2022/04/10 10:13:46;;;;;;;6.20;3.97;;;8.00;1.00;;;;;;7359031;19;20010;-61
2022/04/10 10:16:17;;;;;;;7.25;3.58;;;7.80;1.00;;;;;;7389638;19;20154;-61
2022/04/10 10:18:49;;;;;;;6.47;4.15;;;7.40;1.00;;;;;;7367561;19;20659;-60
2022/04/10 10:21:20;;;;;;;6.25;3.47;;;7.30;1.00;;;;;;7366583;19;20066;-61
2022/04/10 10:23:53;;;;;;;7.30;4.40;;;6.70;1.00;;;;;;7358081;19;20371;-62
2022/04/10 10:26:43;;;;;;;5.85;4.22;;;6.50;1.00;;;;;;7367046;19;20017;-62
2022/04/10 10:29:43;;;;;;;5.85;4.28;;;6.40;1.00;;;;;;7367114;19;20048;-61
2022/04/10 10:32:17;;;;;;;8.50;4.43;;;6.30;1.00;;;;;;7362618;19;20555;-62
2022/04/10 10:34:52;;;;;;;8.57;3.78;;;6.60;1.00;;;;;;7363143;19;20601;-62
2022/04/10 10:37:31;;;;;;;8.10;4.30;;;6.70;1.00;;;;;;7388013;19;20032;-62
2022/04/10 10:40:01;;;;;;;9.88;4.35;;;6.90;1.00;;;;;;7363751;19;20632;-62
2022/04/10 10:42:43;;;;;;;5.88;4.07;;;7.40;1.00;;;;;;7353957;19;20016;-61
2022/04/10 10:45:13;;;;;;;7.32;4.20;;;7.60;1.00;;;;;;7354387;19;20010;-61
2022/04/10 10:47:43;;;;;;;7.13;4.97;;;7.60;1.00;;;;;;7365920;19;20035;-61
2022/04/10 10:50:33;;;;;;;6.13;4.38;;;7.90;1.00;;;;;;7365501;19;20023;-61
2022/04/10 10:53:07;;;;;;;6.10;4.10;;;7.90;1.00;;;;;;7361672;19;20014;-60
2022/04/10 10:55:46;;;;;;;7.97;4.60;;;7.70;1.00;;;;;;7378927;19;20708;-62
2022/04/10 10:58:18;;;;;;;6.07;4.38;;;7.90;1.00;;;;;;7387986;19;20018;-61
2022/04/10 11:00:48;;;;;;;6.68;4.43;;;8.20;1.00;;;;;;7364525;19;20028;-61
2022/04/10 11:03:18;;;;;;;8.25;4.97;;;8.70;1.00;;;;;;7360093;19;20731;-61
2022/04/10 11:05:51;;;;;;;9.52;4.63;;;8.60;1.00;;;;;;7360672;19;20095;-61
2022/04/10 11:08:20;;;;;;;8.38;4.60;;;8.40;1.00;;;;;;7365340;19;20015;-61
2022/04/10 11:10:55;;;;;;;8.77;4.53;;;9.30;1.00;;;;;;7364252;19;20011;-61
2022/04/10 11:13:25;;;;;;;9.15;4.72;;;9.00;1.00;;;;;;7379427;19;20011;-61
2022/04/10 11:15:56;;;;;;;6.60;4.25;;;9.60;1.00;;;;;;7358910;19;20015;-61
2022/04/10 11:18:36;;;;;;;7.75;4.18;;;9.10;1.00;;;;;;7364043;19;20018;-61
2022/04/10 11:21:15;;;;;;;5.05;3.63;;;8.90;1.00;;;;;;7363771;19;20007;-60
2022/04/10 11:23:55;;;;;;;8.23;4.15;;;9.30;1.00;;;;;;7355564;19;20011;-62
2022/04/10 11:26:27;;;;;;;6.78;3.97;;;9.70;1.00;;;;;;7365509;19;20106;-61
2022/04/10 11:29:04;;;;;;;6.90;4.53;;;9.80;1.00;;;;;;7364600;19;20014;-60
2022/04/10 11:31:36;;;;;;;9.05;5.65;;;10.70;1.00;;;;;;7385375;19;20582;-61
2022/04/10 11:34:17;;;;;;;6.63;4.90;;;9.60;1.00;;;;;;7354273;19;20923;-61
2022/04/10 11:36:54;;;;;;;6.50;4.82;;;9.40;1.00;;;;;;7357237;19;20720;-60
2022/04/10 11:39:29;;;;;;;6.70;4.43;;;8.90;1.00;;;;;;7355921;19;20504;-61
2022/04/10 11:42:03;;;;;;;5.15;3.50;;;8.70;1.00;;;;;;7354590;19;20038;-60
2022/04/10 11:44:36;;;;;;;6.00;3.50;;;8.30;1.00;;;;;;7351347;19;20351;-60
2022/04/10 11:47:08;;;;;;;5.88;4.20;;;7.90;1.00;;;;;;7357800;19;20042;-61
2022/04/10 11:49:39;;;;;;;8.13;3.95;;;7.50;1.00;;;;;;7373280;19;20049;-62
2022/04/10 11:52:11;;;;;;;5.63;3.85;;;7.40;1.00;;;;;;7380835;19;20014;-60
2022/04/10 11:54:41;;;;;;;5.93;3.53;;;7.30;1.00;;;;;;7359927;19;20013;-61
2022/04/10 11:57:12;;;;;;;8.75;5.07;;;7.20;1.00;;;;;;7364789;19;20093;-61
2022/04/10 11:59:43;;;;;;;6.82;3.90;;;7.60;1.00;;;;;;7364411;19;20078;-61
2022/04/10 12:02:14;;;;;;;6.90;4.00;;;7.80;1.00;;;;;;7361029;19;20489;-61
2022/04/10 12:04:49;;;;;;;7.15;3.75;;;8.10;1.00;;;;;;7358594;19;20034;-61
2022/04/10 12:07:22;;;;;;;5.25;3.50;;;8.30;1.00;;;;;;7387264;19;20014;-60
2022/04/10 12:09:54;;;;;;;4.97;3.40;;;8.10;1.00;;;;;;7363954;19;20014;-61
2022/04/10 12:12:36;;;;;;;6.57;4.13;;;8.00;1.00;;;;;;7358856;19;20866;-61
2022/04/10 12:15:19;;;;;;;9.02;4.15;;;8.00;1.00;;;;;;7356066;19;20057;-61
2022/04/10 12:17:49;;;;;;;7.45;4.47;;;7.80;1.00;;;;;;7362788;19;20040;-62
2022/04/10 12:20:38;;;;;;;7.45;5.28;;;7.30;1.00;;;;;;7361920;19;20085;-60
2022/04/10 12:23:24;;;;;;;10.50;5.75;;;6.80;2.70;;;;;;7357579;19;20507;-61
2022/04/10 12:25:56;;;;;;;7.05;5.10;;;6.90;6.10;;;;;;7355586;19;20356;-61
2022/04/10 12:28:26;;;;;;;7.03;4.53;;;6.60;4.30;;;;;;7384322;19;20419;-60
2022/04/10 12:30:56;;;;;;;8.05;3.92;;;6.50;5.50;;;;;;7360689;19;20014;-60
2022/04/10 12:33:28;;;;;;;5.45;3.70;;;6.70;3.70;;;;;;7357672;19;20654;-61
2022/04/10 12:35:58;;;;;;;4.82;3.75;;;6.90;1.00;;;;;;7359500;19;20038;-61
2022/04/10 12:38:34;;;;;;;5.88;3.53;;;7.10;1.00;;;;;;7362538;19;20014;-61
2022/04/10 12:41:08;;;;;;;3.63;2.08;;;7.50;1.00;;;;;;7360979;19;20006;-61
2022/04/10 12:43:38;;;;;;;4.05;2.53;;;7.80;1.00;;;;;;7369943;19;20022;-61
2022/04/10 12:46:12;;;;;;;5.45;2.83;;;7.70;1.00;;;;;;7382932;19;20022;-61
2022/04/10 12:48:42;;;;;;;4.57;2.65;;;7.20;1.00;;;;;;7362771;19;20031;-61
2022/04/10 12:51:14;;;;;;;3.03;2.55;;;7.50;1.00;;;;;;7361918;19;20010;-60
2022/04/10 12:53:51;;;;;;;3.88;2.90;;;7.40;1.00;;;;;;7352501;19;20098;-62
2022/04/10 12:56:25;;;;;;;3.88;2.78;;;8.00;1.00;;;;;;7362679;19;20014;-62
2022/04/10 12:58:55;;;;;;;3.97;2.95;;;8.00;1.00;;;;;;7363288;19;20018;-61
2022/04/10 13:01:29;;;;;;;5.05;3.03;;;8.10;1.00;;;;;;7384934;19;20468;-61
2022/04/10 13:03:59;;;;;;;;;;;8.50;1.00;;;;;;7353860;19;20017;-61
2022/04/10 13:06:53;;;;;;;4.53;3.17;;;8.20;1.00;;;;;;7362435;19;19918;-61
2022/04/10 13:09:26;;;;;;;4.95;3.03;;;8.10;1.00;;;;;;7358907;19;20007;-61
2022/04/10 13:11:56;;;;;;;6.40;3.35;;;8.40;1.00;;;;;;7360023;19;20103;-61
2022/04/10 13:14:26;;;;;;;3.65;2.33;;;8.40;1.00;;;;;;7357636;19;20011;-61
2022/04/10 13:17:06;;;;;;;3.63;2.55;;;8.20;1.00;;;;;;7360312;19;20028;-60
2022/04/10 13:19:37;;;;;;;5.32;3.00;;;8.40;1.00;;;;;;7382437;19;20078;-61
2022/04/10 13:22:07;;;;;;;2.92;2.60;;;8.50;1.00;;;;;;7356630;19;20018;-61
2022/04/10 13:24:45;;;;;;;4.43;3.00;;;8.20;1.00;;;;;;7356597;19;20003;-60
2022/04/10 13:27:17;;;;;;;3.63;2.45;;;8.00;1.00;;;;;;7361824;19;21028;-61
2022/04/10 13:29:47;;;;;;;4.35;2.80;;;8.10;1.00;;;;;;7360788;19;21331;-61
2022/04/10 13:32:18;;;;;;;4.47;2.50;;;8.30;1.00;;;;;;7354693;19;20429;-62
2022/04/10 13:34:48;;;;;;;3.25;2.45;;;8.40;1.00;;;;;;7356803;19;20764;-61
2022/04/10 13:37:19;;;;;;;4.35;2.45;;;8.60;1.00;;;;;;7383233;19;20015;-61
2022/04/10 13:39:51;;;;;;;4.63;2.67;;;8.30;1.00;;;;;;7367647;19;20021;-61
2022/04/10 13:42:21;;;;;;;4.53;2.55;;;8.20;1.00;;;;;;7363861;19;20137;-61
2022/04/10 13:44:51;;;;;;;4.65;2.55;;;8.10;1.00;;;;;;7364974;19;20122;-61
2022/04/10 13:47:21;;;;;;;3.58;2.95;;;7.80;1.00;;;;;;7367996;19;20010;-61
2022/04/10 13:49:51;;;;;;;5.03;3.15;;;7.70;1.00;;;;;;7367635;19;20577;-59
2022/04/10 13:52:21;;;;;;;3.17;2.65;;;7.90;1.00;;;;;;7384445;19;20087;-61
2022/04/10 13:54:54;;;;;;;6.47;3.33;;;7.90;1.00;;;;;;7362009;19;20011;-61
2022/04/10 13:57:24;;;;;;;6.07;2.83;;;8.00;1.00;;;;;;7368517;19;20015;-61